Furstenfeld, Austria
Current Conditions -  °F | °C
As of 4:50 PM on Saturday 25 Oct 2014 (Local Time) from LOWG Reporting Station
Broken Clouds Broken Clouds  
Wind Chill: 44°   Ceiling: 3700
Heat Index: 48°   Visibility: 6mi
Dew Point: 43°   Wind: 9mph
Humidity: 82%   Direction: 150°SSE
Pressure: 30.24"   Gusts: NA
Location:  47.05°N, 16.08°E
Report Text: LOWG 251450Z 15008KT 9999 FEW020 BKN037 09/06 Q1024 NOSIG
Loading
Personal Weather Stations






























Interactive Weather Map
Tropical Storm Tracking
New forecast layout! Learn more

10-Day Weather Forecast

Advertisements
Track Severe Weather on mobile